Terminal Aerodrome Forecast
Issued by NWS

Home | Current Version | Previous Version | Text Only | Print | Product List | Glossary On
Versions: 1 2 3 4 5 6 7 8 9 10 11 12 13 14
000
FTAK31 PAJN 282300 RRA
TAFASI
TAF
PASI 282343Z 2900/2924 13015G25KT 6SM -RA BKN040 OVC060
      WS020/12040KT
      TEMPO 2900/2902 4SM RA BR BKN030 OVC040
     FM290200 15010G20KT 5SM -SHRA BR OVC025
     FM290700 21008G17KT P6SM -SHRA SCT020 OVC035=

USA.gov is the U.S. government's official web portal to all federal, state and local government web resources and services.